sensor_id;sensor_type;location;lat;lon;timestamp;temperature;humidity
12847;DHT22;6492;48.128;8.320;2023-02-23T00:00:30;6.00;55.40
12847;DHT22;6492;48.128;8.320;2023-02-23T00:04:36;6.00;54.80
12847;DHT22;6492;48.128;8.320;2023-02-23T00:08:38;5.90;54.60
12847;DHT22;6492;48.128;8.320;2023-02-23T00:12:41;5.90;54.50
12847;DHT22;6492;48.128;8.320;2023-02-23T00:16:44;5.90;54.70
12847;DHT22;6492;48.128;8.320;2023-02-23T00:20:54;5.80;54.00
12847;DHT22;6492;48.128;8.320;2023-02-23T00:24:57;5.90;53.30
12847;DHT22;6492;48.128;8.320;2023-02-23T00:29:00;5.80;52.60
12847;DHT22;6492;48.128;8.320;2023-02-23T00:33:02;5.80;52.20
12847;DHT22;6492;48.128;8.320;2023-02-23T00:37:04;5.80;51.80
12847;DHT22;6492;48.128;8.320;2023-02-23T00:41:10;5.70;51.90
12847;DHT22;6492;48.128;8.320;2023-02-23T00:45:13;5.70;52.40
12847;DHT22;6492;48.128;8.320;2023-02-23T00:49:15;5.70;52.40
12847;DHT22;6492;48.128;8.320;2023-02-23T00:53:17;5.70;51.30
12847;DHT22;6492;48.128;8.320;2023-02-23T00:57:19;5.70;50.00
12847;DHT22;6492;48.128;8.320;2023-02-23T01:01:23;5.70;50.00
12847;DHT22;6492;48.128;8.320;2023-02-23T01:05:25;5.80;49.60
12847;DHT22;6492;48.128;8.320;2023-02-23T01:09:27;5.70;50.20
12847;DHT22;6492;48.128;8.320;2023-02-23T01:13:29;5.70;51.20
12847;DHT22;6492;48.128;8.320;2023-02-23T01:17:32;5.70;51.50
12847;DHT22;6492;48.128;8.320;2023-02-23T01:21:36;5.60;52.50
12847;DHT22;6492;48.128;8.320;2023-02-23T01:25:40;5.60;53.60
12847;DHT22;6492;48.128;8.320;2023-02-23T01:29:42;5.60;54.70
12847;DHT22;6492;48.128;8.320;2023-02-23T01:33:45;5.50;55.40
12847;DHT22;6492;48.128;8.320;2023-02-23T01:37:47;5.50;55.70
12847;DHT22;6492;48.128;8.320;2023-02-23T01:41:49;5.50;56.10
12847;DHT22;6492;48.128;8.320;2023-02-23T01:45:54;5.50;56.10
12847;DHT22;6492;48.128;8.320;2023-02-23T01:49:57;5.50;56.40
12847;DHT22;6492;48.128;8.320;2023-02-23T01:54:06;5.40;56.70
12847;DHT22;6492;48.128;8.320;2023-02-23T01:58:11;5.40;56.70
12847;DHT22;6492;48.128;8.320;2023-02-23T02:02:17;5.50;57.20
12847;DHT22;6492;48.128;8.320;2023-02-23T02:06:23;5.50;56.80
12847;DHT22;6492;48.128;8.320;2023-02-23T02:10:28;5.50;56.60
12847;DHT22;6492;48.128;8.320;2023-02-23T02:14:45;5.40;56.60
12847;DHT22;6492;48.128;8.320;2023-02-23T02:19:01;5.40;56.70
12847;DHT22;6492;48.128;8.320;2023-02-23T02:28:04;5.30;57.00
12847;DHT22;6492;48.128;8.320;2023-02-23T02:32:28;5.20;57.40
12847;DHT22;6492;48.128;8.320;2023-02-23T02:41:21;5.10;58.60
12847;DHT22;6492;48.128;8.320;2023-02-23T02:45:29;5.10;58.90
12847;DHT22;6492;48.128;8.320;2023-02-23T02:49:36;5.00;58.90
12847;DHT22;6492;48.128;8.320;2023-02-23T02:53:47;4.90;58.90
12847;DHT22;6492;48.128;8.320;2023-02-23T02:57:56;4.80;59.30
12847;DHT22;6492;48.128;8.320;2023-02-23T03:01:58;4.70;59.60
12847;DHT22;6492;48.128;8.320;2023-02-23T03:06:20;4.60;60.40
12847;DHT22;6492;48.128;8.320;2023-02-23T03:10:45;4.60;61.20
12847;DHT22;6492;48.128;8.320;2023-02-23T03:15:19;4.50;62.00
12847;DHT22;6492;48.128;8.320;2023-02-23T03:19:50;4.50;63.40
12847;DHT22;6492;48.128;8.320;2023-02-23T03:24:17;4.50;64.20
12847;DHT22;6492;48.128;8.320;2023-02-23T03:28:47;4.50;64.70
12847;DHT22;6492;48.128;8.320;2023-02-23T03:33:15;4.60;65.20
12847;DHT22;6492;48.128;8.320;2023-02-23T03:37:40;4.60;65.30
12847;DHT22;6492;48.128;8.320;2023-02-23T03:42:02;4.60;65.50
12847;DHT22;6492;48.128;8.320;2023-02-23T03:46:24;4.60;65.10
12847;DHT22;6492;48.128;8.320;2023-02-23T03:50:51;4.60;65.20
12847;DHT22;6492;48.128;8.320;2023-02-23T03:55:15;4.60;65.60
12847;DHT22;6492;48.128;8.320;2023-02-23T03:59:38;4.50;65.40
12847;DHT22;6492;48.128;8.320;2023-02-23T04:03:58;4.50;65.50
12847;DHT22;6492;48.128;8.320;2023-02-23T04:08:20;4.40;65.70
12847;DHT22;6492;48.128;8.320;2023-02-23T04:12:48;4.40;65.80
12847;DHT22;6492;48.128;8.320;2023-02-23T04:17:20;4.30;66.30
12847;DHT22;6492;48.128;8.320;2023-02-23T04:21:29;4.30;67.10
12847;DHT22;6492;48.128;8.320;2023-02-23T04:25:33;4.40;67.40
12847;DHT22;6492;48.128;8.320;2023-02-23T04:29:34;4.40;67.50
12847;DHT22;6492;48.128;8.320;2023-02-23T04:33:36;4.40;67.90
12847;DHT22;6492;48.128;8.320;2023-02-23T04:37:38;4.50;67.90
12847;DHT22;6492;48.128;8.320;2023-02-23T04:41:41;4.50;67.90
12847;DHT22;6492;48.128;8.320;2023-02-23T04:45:43;4.50;68.10
12847;DHT22;6492;48.128;8.320;2023-02-23T04:49:45;4.50;68.40
12847;DHT22;6492;48.128;8.320;2023-02-23T04:53:47;4.50;68.30
12847;DHT22;6492;48.128;8.320;2023-02-23T04:57:51;4.50;68.50
12847;DHT22;6492;48.128;8.320;2023-02-23T05:01:53;4.50;68.50
12847;DHT22;6492;48.128;8.320;2023-02-23T05:05:55;4.40;67.80
12847;DHT22;6492;48.128;8.320;2023-02-23T05:09:56;4.30;67.40
12847;DHT22;6492;48.128;8.320;2023-02-23T05:14:02;4.30;68.20
12847;DHT22;6492;48.128;8.320;2023-02-23T05:18:04;4.20;68.90
12847;DHT22;6492;48.128;8.320;2023-02-23T05:22:06;4.20;69.40
12847;DHT22;6492;48.128;8.320;2023-02-23T05:26:12;4.20;69.90
12847;DHT22;6492;48.128;8.320;2023-02-23T05:30:15;4.20;70.90
12847;DHT22;6492;48.128;8.320;2023-02-23T05:34:17;4.20;71.30
12847;DHT22;6492;48.128;8.320;2023-02-23T05:38:19;4.20;71.40
12847;DHT22;6492;48.128;8.320;2023-02-23T05:42:21;4.20;71.50
12847;DHT22;6492;48.128;8.320;2023-02-23T05:46:25;4.20;71.70
12847;DHT22;6492;48.128;8.320;2023-02-23T05:50:27;4.20;71.90
12847;DHT22;6492;48.128;8.320;2023-02-23T05:54:29;4.30;72.40
12847;DHT22;6492;48.128;8.320;2023-02-23T05:58:31;4.30;72.60
12847;DHT22;6492;48.128;8.320;2023-02-23T06:02:36;4.40;72.80
12847;DHT22;6492;48.128;8.320;2023-02-23T06:06:38;4.30;72.10
12847;DHT22;6492;48.128;8.320;2023-02-23T06:10:40;4.10;71.20
12847;DHT22;6492;48.128;8.320;2023-02-23T06:14:42;4.00;71.30
12847;DHT22;6492;48.128;8.320;2023-02-23T06:18:45;4.00;71.90
12847;DHT22;6492;48.128;8.320;2023-02-23T06:22:47;4.00;72.70
12847;DHT22;6492;48.128;8.320;2023-02-23T06:26:48;4.10;73.30
12847;DHT22;6492;48.128;8.320;2023-02-23T06:30:51;4.10;73.50
12847;DHT22;6492;48.128;8.320;2023-02-23T06:34:54;4.20;74.00
12847;DHT22;6492;48.128;8.320;2023-02-23T06:38:57;4.30;74.20
12847;DHT22;6492;48.128;8.320;2023-02-23T06:42:59;4.40;74.50
12847;DHT22;6492;48.128;8.320;2023-02-23T06:47:03;4.50;74.60
12847;DHT22;6492;48.128;8.320;2023-02-23T06:51:07;4.50;74.70
12847;DHT22;6492;48.128;8.320;2023-02-23T06:55:09;4.70;75.00
12847;DHT22;6492;48.128;8.320;2023-02-23T06:59:12;4.80;75.20
12847;DHT22;6492;48.128;8.320;2023-02-23T07:03:14;5.00;75.30
12847;DHT22;6492;48.128;8.320;2023-02-23T07:07:17;5.10;75.30
12847;DHT22;6492;48.128;8.320;2023-02-23T07:11:19;5.20;74.80
12847;DHT22;6492;48.128;8.320;2023-02-23T07:15:21;5.30;74.50
12847;DHT22;6492;48.128;8.320;2023-02-23T07:19:23;5.30;74.00
12847;DHT22;6492;48.128;8.320;2023-02-23T07:23:26;5.40;73.50
12847;DHT22;6492;48.128;8.320;2023-02-23T07:27:28;5.50;72.90
12847;DHT22;6492;48.128;8.320;2023-02-23T07:31:29;5.50;71.90
12847;DHT22;6492;48.128;8.320;2023-02-23T07:35:31;5.70;71.30
12847;DHT22;6492;48.128;8.320;2023-02-23T07:39:34;5.80;70.60
12847;DHT22;6492;48.128;8.320;2023-02-23T07:43:36;6.00;69.80
12847;DHT22;6492;48.128;8.320;2023-02-23T07:47:49;6.20;68.40
12847;DHT22;6492;48.128;8.320;2023-02-23T07:51:51;6.30;66.60
12847;DHT22;6492;48.128;8.320;2023-02-23T07:55:57;6.30;65.30
12847;DHT22;6492;48.128;8.320;2023-02-23T07:59:59;6.40;64.30
12847;DHT22;6492;48.128;8.320;2023-02-23T08:04:01;6.40;63.20
12847;DHT22;6492;48.128;8.320;2023-02-23T08:08:03;6.40;62.60
12847;DHT22;6492;48.128;8.320;2023-02-23T08:12:06;6.50;59.60
12847;DHT22;6492;48.128;8.320;2023-02-23T08:16:09;6.80;56.30
12847;DHT22;6492;48.128;8.320;2023-02-23T08:20:12;7.00;52.90
12847;DHT22;6492;48.128;8.320;2023-02-23T08:24:14;7.30;52.80
12847;DHT22;6492;48.128;8.320;2023-02-23T08:28:17;7.60;51.20
12847;DHT22;6492;48.128;8.320;2023-02-23T08:32:19;7.80;49.90
12847;DHT22;6492;48.128;8.320;2023-02-23T08:36:32;8.00;47.00
12847;DHT22;6492;48.128;8.320;2023-02-23T08:40:33;8.30;45.70
12847;DHT22;6492;48.128;8.320;2023-02-23T08:44:36;8.60;43.90
12847;DHT22;6492;48.128;8.320;2023-02-23T08:48:39;8.80;41.20
12847;DHT22;6492;48.128;8.320;2023-02-23T08:52:40;8.90;38.30
12847;DHT22;6492;48.128;8.320;2023-02-23T08:56:43;9.00;37.20
12847;DHT22;6492;48.128;8.320;2023-02-23T09:00:46;9.10;36.60
12847;DHT22;6492;48.128;8.320;2023-02-23T09:04:48;9.20;36.50
12847;DHT22;6492;48.128;8.320;2023-02-23T09:08:54;9.50;35.20
12847;DHT22;6492;48.128;8.320;2023-02-23T09:12:56;9.60;34.00
12847;DHT22;6492;48.128;8.320;2023-02-23T09:16:59;9.70;32.10
12847;DHT22;6492;48.128;8.320;2023-02-23T09:21:03;9.80;31.50
12847;DHT22;6492;48.128;8.320;2023-02-23T09:25:07;9.90;30.40
12847;DHT22;6492;48.128;8.320;2023-02-23T09:29:09;9.80;29.90
12847;DHT22;6492;48.128;8.320;2023-02-23T09:33:13;9.80;29.20
12847;DHT22;6492;48.128;8.320;2023-02-23T09:37:15;9.70;29.70
12847;DHT22;6492;48.128;8.320;2023-02-23T09:41:47;9.60;29.90
12847;DHT22;6492;48.128;8.320;2023-02-23T09:45:59;9.50;29.80
12847;DHT22;6492;48.128;8.320;2023-02-23T09:50:13;9.40;29.80
12847;DHT22;6492;48.128;8.320;2023-02-23T09:54:17;9.40;29.50
12847;DHT22;6492;48.128;8.320;2023-02-23T09:58:22;9.30;29.80
12847;DHT22;6492;48.128;8.320;2023-02-23T10:02:29;9.20;29.50
12847;DHT22;6492;48.128;8.320;2023-02-23T10:06:35;9.20;30.50
12847;DHT22;6492;48.128;8.320;2023-02-23T10:10:43;9.20;30.00
12847;DHT22;6492;48.128;8.320;2023-02-23T10:15:14;9.20;30.30
12847;DHT22;6492;48.128;8.320;2023-02-23T10:19:21;9.20;30.30
12847;DHT22;6492;48.128;8.320;2023-02-23T10:24:01;9.20;30.20
12847;DHT22;6492;48.128;8.320;2023-02-23T10:28:04;9.40;30.00
12847;DHT22;6492;48.128;8.320;2023-02-23T10:32:14;9.60;29.70
12847;DHT22;6492;48.128;8.320;2023-02-23T10:36:28;9.80;27.30
12847;DHT22;6492;48.128;8.320;2023-02-23T10:40:33;10.30;27.80
12847;DHT22;6492;48.128;8.320;2023-02-23T10:44:35;11.00;25.30
12847;DHT22;6492;48.128;8.320;2023-02-23T10:48:40;11.50;21.20
12847;DHT22;6492;48.128;8.320;2023-02-23T10:52:45;12.10;20.70
12847;DHT22;6492;48.128;8.320;2023-02-23T10:56:49;12.20;16.40
12847;DHT22;6492;48.128;8.320;2023-02-23T11:00:52;12.00;16.60
12847;DHT22;6492;48.128;8.320;2023-02-23T11:04:56;11.70;16.10
12847;DHT22;6492;48.128;8.320;2023-02-23T11:08:58;11.50;16.90
12847;DHT22;6492;48.128;8.320;2023-02-23T11:13:22;11.20;17.30
12847;DHT22;6492;48.128;8.320;2023-02-23T11:17:30;10.90;18.40
12847;DHT22;6492;48.128;8.320;2023-02-23T11:21:34;10.90;18.90
12847;DHT22;6492;48.128;8.320;2023-02-23T11:25:41;11.30;18.80
12847;DHT22;6492;48.128;8.320;2023-02-23T11:29:46;11.80;15.40
12847;DHT22;6492;48.128;8.320;2023-02-23T11:33:52;12.00;14.60
12847;DHT22;6492;48.128;8.320;2023-02-23T11:37:55;11.80;14.30
12847;DHT22;6492;48.128;8.320;2023-02-23T11:42:28;11.70;14.70
12847;DHT22;6492;48.128;8.320;2023-02-23T11:46:36;11.60;15.60
12847;DHT22;6492;48.128;8.320;2023-02-23T11:50:44;11.30;15.10
12847;DHT22;6492;48.128;8.320;2023-02-23T11:54:56;11.10;15.70
12847;DHT22;6492;48.128;8.320;2023-02-23T11:59:01;10.90;15.90
12847;DHT22;6492;48.128;8.320;2023-02-23T12:03:17;11.10;16.50
12847;DHT22;6492;48.128;8.320;2023-02-23T12:07:29;11.40;17.50
12847;DHT22;6492;48.128;8.320;2023-02-23T12:11:37;11.80;15.70
12847;DHT22;6492;48.128;8.320;2023-02-23T12:15:44;12.10;12.80
12847;DHT22;6492;48.128;8.320;2023-02-23T12:19:55;12.00;11.80
12847;DHT22;6492;48.128;8.320;2023-02-23T12:24:17;12.10;13.80
12847;DHT22;6492;48.128;8.320;2023-02-23T12:28:25;12.20;11.70
12847;DHT22;6492;48.128;8.320;2023-02-23T12:32:41;12.10;12.10
12847;DHT22;6492;48.128;8.320;2023-02-23T12:36:55;11.90;13.10
12847;DHT22;6492;48.128;8.320;2023-02-23T12:41:12;11.70;13.50
12847;DHT22;6492;48.128;8.320;2023-02-23T12:45:20;11.40;14.10
12847;DHT22;6492;48.128;8.320;2023-02-23T12:49:34;11.00;15.20
12847;DHT22;6492;48.128;8.320;2023-02-23T12:53:40;10.70;16.70
12847;DHT22;6492;48.128;8.320;2023-02-23T12:57:49;10.40;19.50
12847;DHT22;6492;48.128;8.320;2023-02-23T13:02:09;10.10;24.60
12847;DHT22;6492;48.128;8.320;2023-02-23T13:06:34;9.70;27.60
12847;DHT22;6492;48.128;8.320;2023-02-23T13:10:46;9.60;29.20
12847;DHT22;6492;48.128;8.320;2023-02-23T13:15:17;9.60;31.50
12847;DHT22;6492;48.128;8.320;2023-02-23T13:19:23;9.90;35.70
12847;DHT22;6492;48.128;8.320;2023-02-23T13:23:34;10.30;32.80
12847;DHT22;6492;48.128;8.320;2023-02-23T13:27:42;10.70;32.20
12847;DHT22;6492;48.128;8.320;2023-02-23T13:31:48;11.10;30.00
12847;DHT22;6492;48.128;8.320;2023-02-23T13:35:51;11.50;28.60
12847;DHT22;6492;48.128;8.320;2023-02-23T13:40:00;11.70;25.30
12847;DHT22;6492;48.128;8.320;2023-02-23T13:44:08;11.90;25.50
12847;DHT22;6492;48.128;8.320;2023-02-23T13:48:29;12.10;25.40
12847;DHT22;6492;48.128;8.320;2023-02-23T13:52:37;11.90;22.70
12847;DHT22;6492;48.128;8.320;2023-02-23T13:56:53;11.90;20.80
12847;DHT22;6492;48.128;8.320;2023-02-23T14:01:08;11.90;22.50
12847;DHT22;6492;48.128;8.320;2023-02-23T14:05:17;11.60;22.20
12847;DHT22;6492;48.128;8.320;2023-02-23T14:09:22;11.30;23.50
12847;DHT22;6492;48.128;8.320;2023-02-23T14:13:28;11.30;22.20
12847;DHT22;6492;48.128;8.320;2023-02-23T14:17:42;11.10;21.70
12847;DHT22;6492;48.128;8.320;2023-02-23T14:21:58;11.10;20.30
12847;DHT22;6492;48.128;8.320;2023-02-23T14:26:34;10.90;20.80
12847;DHT22;6492;48.128;8.320;2023-02-23T14:30:43;10.70;22.20
12847;DHT22;6492;48.128;8.320;2023-02-23T14:34:52;10.50;22.70
12847;DHT22;6492;48.128;8.320;2023-02-23T14:38:59;10.40;23.60
12847;DHT22;6492;48.128;8.320;2023-02-23T14:43:31;10.40;24.00
12847;DHT22;6492;48.128;8.320;2023-02-23T14:47:41;10.30;23.00
12847;DHT22;6492;48.128;8.320;2023-02-23T14:51:47;10.30;24.50
12847;DHT22;6492;48.128;8.320;2023-02-23T14:55:49;10.30;24.10
12847;DHT22;6492;48.128;8.320;2023-02-23T14:59:55;10.50;24.10
12847;DHT22;6492;48.128;8.320;2023-02-23T15:04:08;10.60;23.20
12847;DHT22;6492;48.128;8.320;2023-02-23T15:08:33;10.70;22.50
12847;DHT22;6492;48.128;8.320;2023-02-23T15:12:49;10.80;21.80
12847;DHT22;6492;48.128;8.320;2023-02-23T15:16:56;10.80;22.10
12847;DHT22;6492;48.128;8.320;2023-02-23T15:21:17;10.80;21.80
12847;DHT22;6492;48.128;8.320;2023-02-23T15:25:22;10.90;20.70
12847;DHT22;6492;48.128;8.320;2023-02-23T15:29:31;10.90;20.90
12847;DHT22;6492;48.128;8.320;2023-02-23T15:33:34;10.80;20.60
12847;DHT22;6492;48.128;8.320;2023-02-23T15:37:38;10.90;21.00
12847;DHT22;6492;48.128;8.320;2023-02-23T15:41:44;11.00;21.10
12847;DHT22;6492;48.128;8.320;2023-02-23T15:45:49;11.20;24.40
12847;DHT22;6492;48.128;8.320;2023-02-23T15:50:06;11.30;24.80
12847;DHT22;6492;48.128;8.320;2023-02-23T15:54:14;11.20;25.40
12847;DHT22;6492;48.128;8.320;2023-02-23T15:58:37;10.90;26.00
12847;DHT22;6492;48.128;8.320;2023-02-23T16:02:39;10.60;26.80
12847;DHT22;6492;48.128;8.320;2023-02-23T16:07:07;10.30;27.50
12847;DHT22;6492;48.128;8.320;2023-02-23T16:11:13;9.90;28.10
12847;DHT22;6492;48.128;8.320;2023-02-23T16:15:22;9.60;28.90
12847;DHT22;6492;48.128;8.320;2023-02-23T16:19:33;9.30;30.20
12847;DHT22;6492;48.128;8.320;2023-02-23T16:23:44;9.00;32.00
12847;DHT22;6492;48.128;8.320;2023-02-23T16:27:52;8.80;33.40
12847;DHT22;6492;48.128;8.320;2023-02-23T16:31:58;8.70;33.80
12847;DHT22;6492;48.128;8.320;2023-02-23T16:36:33;8.50;34.50
12847;DHT22;6492;48.128;8.320;2023-02-23T16:40:47;8.40;35.20
12847;DHT22;6492;48.128;8.320;2023-02-23T16:44:49;8.10;35.50
12847;DHT22;6492;48.128;8.320;2023-02-23T16:48:51;7.90;36.40
12847;DHT22;6492;48.128;8.320;2023-02-23T16:53:12;7.70;36.90
12847;DHT22;6492;48.128;8.320;2023-02-23T16:57:24;7.50;38.20
12847;DHT22;6492;48.128;8.320;2023-02-23T17:01:35;7.20;39.40
12847;DHT22;6492;48.128;8.320;2023-02-23T17:05:47;7.00;40.40
12847;DHT22;6492;48.128;8.320;2023-02-23T17:10:01;6.80;41.70
12847;DHT22;6492;48.128;8.320;2023-02-23T17:14:04;6.60;44.20
12847;DHT22;6492;48.128;8.320;2023-02-23T17:18:06;6.40;47.10
12847;DHT22;6492;48.128;8.320;2023-02-23T17:22:24;6.30;48.00
12847;DHT22;6492;48.128;8.320;2023-02-23T17:26:26;6.10;50.00
12847;DHT22;6492;48.128;8.320;2023-02-23T17:30:30;6.10;52.30
12847;DHT22;6492;48.128;8.320;2023-02-23T17:34:32;6.20;52.50
12847;DHT22;6492;48.128;8.320;2023-02-23T17:38:45;6.20;52.70
12847;DHT22;6492;48.128;8.320;2023-02-23T17:42:58;6.30;54.40
12847;DHT22;6492;48.128;8.320;2023-02-23T17:47:01;6.20;55.90
12847;DHT22;6492;48.128;8.320;2023-02-23T17:51:05;6.20;56.70
12847;DHT22;6492;48.128;8.320;2023-02-23T17:55:08;6.10;56.90
12847;DHT22;6492;48.128;8.320;2023-02-23T17:59:09;5.90;56.60
12847;DHT22;6492;48.128;8.320;2023-02-23T18:03:15;5.70;56.60
12847;DHT22;6492;48.128;8.320;2023-02-23T18:07:22;5.60;57.60
12847;DHT22;6492;48.128;8.320;2023-02-23T18:11:33;5.60;60.20
12847;DHT22;6492;48.128;8.320;2023-02-23T18:15:35;5.60;62.00
12847;DHT22;6492;48.128;8.320;2023-02-23T18:19:39;5.60;62.90
12847;DHT22;6492;48.128;8.320;2023-02-23T18:23:41;5.70;63.10
12847;DHT22;6492;48.128;8.320;2023-02-23T18:27:43;5.70;63.20
12847;DHT22;6492;48.128;8.320;2023-02-23T18:31:45;5.70;63.20
12847;DHT22;6492;48.128;8.320;2023-02-23T18:35:52;5.80;63.00
12847;DHT22;6492;48.128;8.320;2023-02-23T18:39:54;5.80;63.00
12847;DHT22;6492;48.128;8.320;2023-02-23T18:43:57;5.80;62.70
12847;DHT22;6492;48.128;8.320;2023-02-23T18:47:59;5.80;62.50
12847;DHT22;6492;48.128;8.320;2023-02-23T18:52:03;5.80;62.00
12847;DHT22;6492;48.128;8.320;2023-02-23T18:56:11;5.70;61.70
12847;DHT22;6492;48.128;8.320;2023-02-23T19:00:15;5.70;61.60
12847;DHT22;6492;48.128;8.320;2023-02-23T19:04:18;5.60;61.10
12847;DHT22;6492;48.128;8.320;2023-02-23T19:08:21;5.50;61.40
12847;DHT22;6492;48.128;8.320;2023-02-23T19:12:23;5.40;62.10
12847;DHT22;6492;48.128;8.320;2023-02-23T19:16:28;5.30;63.50
12847;DHT22;6492;48.128;8.320;2023-02-23T19:20:33;5.30;64.10
12847;DHT22;6492;48.128;8.320;2023-02-23T19:24:37;5.20;64.30
12847;DHT22;6492;48.128;8.320;2023-02-23T19:28:43;5.10;64.50
12847;DHT22;6492;48.128;8.320;2023-02-23T19:32:56;5.00;64.70
12847;DHT22;6492;48.128;8.320;2023-02-23T19:36:58;4.90;64.80
12847;DHT22;6492;48.128;8.320;2023-02-23T19:41:03;4.80;65.50
12847;DHT22;6492;48.128;8.320;2023-02-23T19:45:06;4.70;66.50
12847;DHT22;6492;48.128;8.320;2023-02-23T19:49:10;4.60;67.10
12847;DHT22;6492;48.128;8.320;2023-02-23T19:53:14;4.40;67.00
12847;DHT22;6492;48.128;8.320;2023-02-23T19:57:17;4.20;67.20
12847;DHT22;6492;48.128;8.320;2023-02-23T20:01:38;4.10;68.20
12847;DHT22;6492;48.128;8.320;2023-02-23T20:05:39;4.10;69.60
12847;DHT22;6492;48.128;8.320;2023-02-23T20:09:44;4.10;70.50
12847;DHT22;6492;48.128;8.320;2023-02-23T20:13:52;3.90;69.60
12847;DHT22;6492;48.128;8.320;2023-02-23T20:17:53;3.70;69.30
12847;DHT22;6492;48.128;8.320;2023-02-23T20:21:57;3.60;69.70
12847;DHT22;6492;48.128;8.320;2023-02-23T20:26:04;3.50;70.60
12847;DHT22;6492;48.128;8.320;2023-02-23T20:30:15;3.40;71.20
12847;DHT22;6492;48.128;8.320;2023-02-23T20:34:21;3.30;71.30
12847;DHT22;6492;48.128;8.320;2023-02-23T20:38:23;3.20;70.90
12847;DHT22;6492;48.128;8.320;2023-02-23T20:42:25;3.10;71.50
12847;DHT22;6492;48.128;8.320;2023-02-23T20:46:29;3.10;72.00
12847;DHT22;6492;48.128;8.320;2023-02-23T20:50:37;3.00;72.40
12847;DHT22;6492;48.128;8.320;2023-02-23T20:54:41;3.00;72.80
12847;DHT22;6492;48.128;8.320;2023-02-23T20:58:43;2.90;73.00
12847;DHT22;6492;48.128;8.320;2023-02-23T21:02:47;2.80;72.90
12847;DHT22;6492;48.128;8.320;2023-02-23T21:06:54;2.80;73.10
12847;DHT22;6492;48.128;8.320;2023-02-23T21:11:06;2.80;73.50
12847;DHT22;6492;48.128;8.320;2023-02-23T21:15:08;2.70;73.30
12847;DHT22;6492;48.128;8.320;2023-02-23T21:19:12;2.50;73.00
12847;DHT22;6492;48.128;8.320;2023-02-23T21:23:15;2.50;73.50
12847;DHT22;6492;48.128;8.320;2023-02-23T21:27:27;2.60;73.90
12847;DHT22;6492;48.128;8.320;2023-02-23T21:31:29;2.60;74.40
12847;DHT22;6492;48.128;8.320;2023-02-23T21:35:32;2.60;74.70
12847;DHT22;6492;48.128;8.320;2023-02-23T21:39:37;2.60;75.10
12847;DHT22;6492;48.128;8.320;2023-02-23T21:43:42;2.60;75.30
12847;DHT22;6492;48.128;8.320;2023-02-23T21:47:44;2.70;75.50
12847;DHT22;6492;48.128;8.320;2023-02-23T21:51:48;2.60;75.50
12847;DHT22;6492;48.128;8.320;2023-02-23T21:55:50;2.50;75.40
12847;DHT22;6492;48.128;8.320;2023-02-23T21:59:52;2.40;75.00
12847;DHT22;6492;48.128;8.320;2023-02-23T22:03:54;2.30;75.00
12847;DHT22;6492;48.128;8.320;2023-02-23T22:07:57;2.30;75.30
12847;DHT22;6492;48.128;8.320;2023-02-23T22:11:59;2.30;75.60
12847;DHT22;6492;48.128;8.320;2023-02-23T22:16:02;2.30;75.90
12847;DHT22;6492;48.128;8.320;2023-02-23T22:20:05;2.30;76.80
12847;DHT22;6492;48.128;8.320;2023-02-23T22:24:10;2.30;76.00
12847;DHT22;6492;48.128;8.320;2023-02-23T22:28:12;2.20;75.80
12847;DHT22;6492;48.128;8.320;2023-02-23T22:32:13;2.20;76.00
12847;DHT22;6492;48.128;8.320;2023-02-23T22:36:16;2.30;76.60
12847;DHT22;6492;48.128;8.320;2023-02-23T22:40:19;2.40;77.00
12847;DHT22;6492;48.128;8.320;2023-02-23T22:44:22;2.50;77.20
12847;DHT22;6492;48.128;8.320;2023-02-23T22:48:24;2.40;77.10
12847;DHT22;6492;48.128;8.320;2023-02-23T22:52:27;2.80;77.40
12847;DHT22;6492;48.128;8.320;2023-02-23T22:56:35;2.40;77.40
12847;DHT22;6492;48.128;8.320;2023-02-23T23:00:44;2.40;77.30
12847;DHT22;6492;48.128;8.320;2023-02-23T23:05:02;2.20;77.20
12847;DHT22;6492;48.128;8.320;2023-02-23T23:09:04;2.10;77.00
12847;DHT22;6492;48.128;8.320;2023-02-23T23:13:08;2.00;76.70
12847;DHT22;6492;48.128;8.320;2023-02-23T23:17:11;1.90;76.80
12847;DHT22;6492;48.128;8.320;2023-02-23T23:21:14;2.00;77.00
12847;DHT22;6492;48.128;8.320;2023-02-23T23:25:21;2.00;77.10
12847;DHT22;6492;48.128;8.320;2023-02-23T23:29:24;1.90;77.20
12847;DHT22;6492;48.128;8.320;2023-02-23T23:33:29;2.00;77.30
12847;DHT22;6492;48.128;8.320;2023-02-23T23:37:31;1.90;77.40
12847;DHT22;6492;48.128;8.320;2023-02-23T23:41:33;1.90;77.50
12847;DHT22;6492;48.128;8.320;2023-02-23T23:45:38;1.90;77.50
12847;DHT22;6492;48.128;8.320;2023-02-23T23:49:41;2.00;77.70
12847;DHT22;6492;48.128;8.320;2023-02-23T23:53:43;2.00;77.80
12847;DHT22;6492;48.128;8.320;2023-02-23T23:57:45;1.90;77.60
